createdAt,value
2023-03-16T00:01:09.364Z,84.20
2023-03-16T00:03:36.936Z,84.10
2023-03-16T00:06:04.468Z,84.10
2023-03-16T00:08:34.524Z,84.00
2023-03-16T00:11:12.366Z,83.90
2023-03-16T00:13:41.361Z,83.80
2023-03-16T00:16:10.535Z,83.70
2023-03-16T00:18:39.367Z,83.60
2023-03-16T00:21:06.994Z,83.60
2023-03-16T00:23:37.949Z,83.50
2023-03-16T00:26:10.054Z,83.50
2023-03-16T00:28:37.492Z,83.50
2023-03-16T00:31:11.993Z,83.50
2023-03-16T00:33:43.253Z,83.50
2023-03-16T00:36:11.944Z,83.40
2023-03-16T00:38:46.188Z,83.30
2023-03-16T00:41:16.150Z,83.20
2023-03-16T00:43:45.621Z,83.20
2023-03-16T00:46:16.214Z,83.10
2023-03-16T00:48:45.864Z,83.20
2023-03-16T00:51:16.711Z,83.30
2023-03-16T00:53:46.582Z,83.30
2023-03-16T00:56:14.625Z,83.30
2023-03-16T00:58:51.052Z,83.20
2023-03-16T01:01:20.019Z,83.10
2023-03-16T01:03:49.775Z,83.10
2023-03-16T01:06:20.422Z,83.00
2023-03-16T01:08:51.800Z,83.00
2023-03-16T01:11:24.360Z,82.90
2023-03-16T01:13:54.363Z,82.90
2023-03-16T01:16:24.867Z,82.90
2023-03-16T01:18:53.530Z,83.00
2023-03-16T01:21:21.860Z,82.90
2023-03-16T01:23:53.320Z,82.90
2023-03-16T01:26:21.666Z,82.90
2023-03-16T01:28:52.557Z,83.00
2023-03-16T01:31:19.767Z,82.80
2023-03-16T01:33:46.833Z,82.70
2023-03-16T01:36:19.874Z,82.80
2023-03-16T01:38:54.262Z,82.90
2023-03-16T01:41:27.369Z,82.90
2023-03-16T01:43:58.675Z,82.80
2023-03-16T01:46:34.743Z,82.70
2023-03-16T01:49:20.518Z,82.70
2023-03-16T01:52:00.274Z,82.70
2023-03-16T01:54:40.226Z,82.60
2023-03-16T01:57:15.130Z,82.60
2023-03-16T01:59:49.317Z,82.70
2023-03-16T02:02:21.238Z,82.70
2023-03-16T02:05:02.077Z,82.60
2023-03-16T02:07:37.144Z,82.60
2023-03-16T02:10:09.165Z,82.60
2023-03-16T02:12:36.362Z,82.50
2023-03-16T02:15:06.809Z,82.50
2023-03-16T02:17:36.573Z,82.50
2023-03-16T02:20:35.510Z,82.50
2023-03-16T02:23:05.132Z,82.40
2023-03-16T02:25:47.871Z,82.50
2023-03-16T02:28:25.390Z,82.50
2023-03-16T02:30:53.619Z,82.50
2023-03-16T02:33:22.575Z,82.50
2023-03-16T02:35:50.726Z,82.40
2023-03-16T02:38:17.772Z,82.40
2023-03-16T02:41:01.505Z,82.30
2023-03-16T02:43:34.913Z,82.30
2023-03-16T02:46:14.092Z,82.30
2023-03-16T02:48:44.650Z,82.30
2023-03-16T02:51:12.535Z,82.30
2023-03-16T02:53:43.637Z,82.30
2023-03-16T02:57:27.602Z,82.20
2023-03-16T03:00:01.416Z,82.40
2023-03-16T03:02:39.504Z,82.30
2023-03-16T03:05:11.003Z,82.30
2023-03-16T03:07:38.976Z,82.30
2023-03-16T03:10:11.314Z,82.30
2023-03-16T03:12:41.584Z,82.30
2023-03-16T03:15:10.782Z,82.20
2023-03-16T03:17:49.108Z,82.30
2023-03-16T03:20:17.781Z,82.20
2023-03-16T03:22:50.482Z,82.20
2023-03-16T03:25:18.898Z,82.30
2023-03-16T03:27:49.006Z,82.30
2023-03-16T03:30:21.755Z,82.20
2023-03-16T03:32:49.230Z,82.20
2023-03-16T03:35:19.242Z,82.10
2023-03-16T03:37:48.279Z,82.10
2023-03-16T03:40:17.979Z,82.10
2023-03-16T03:42:48.349Z,82.10
2023-03-16T03:45:19.363Z,82.10
2023-03-16T03:47:49.485Z,82.10
2023-03-16T03:50:20.703Z,82.10
2023-03-16T03:53:19.785Z,82.70
2023-03-16T03:56:26.556Z,82.10
2023-03-16T03:58:53.973Z,82.00
2023-03-16T04:01:41.024Z,81.90
2023-03-16T04:04:10.669Z,81.80
2023-03-16T04:06:40.341Z,81.80
2023-03-16T04:09:08.516Z,81.80
2023-03-16T04:11:37.768Z,81.90
2023-03-16T04:14:07.704Z,81.90
2023-03-16T04:16:37.090Z,81.90
2023-03-16T04:19:07.266Z,81.80
2023-03-16T04:21:36.352Z,81.80
2023-03-16T04:24:05.301Z,81.80
2023-03-16T04:26:35.428Z,81.80
2023-03-16T04:29:04.286Z,81.70
2023-03-16T04:31:33.611Z,81.70
2023-03-16T04:34:02.793Z,81.70
2023-03-16T04:36:33.539Z,81.60
2023-03-16T04:39:04.954Z,81.60
2023-03-16T04:41:32.338Z,81.60
2023-03-16T04:44:10.196Z,82.30
2023-03-16T04:46:39.932Z,81.60
2023-03-16T04:49:16.134Z,81.40
2023-03-16T04:51:45.537Z,81.50
2023-03-16T04:54:18.661Z,81.40
2023-03-16T04:56:49.528Z,81.40
2023-03-16T04:59:37.048Z,81.30
2023-03-16T05:02:23.601Z,81.30
2023-03-16T05:04:51.045Z,81.30
2023-03-16T05:07:21.367Z,81.30
2023-03-16T05:09:53.707Z,81.30
2023-03-16T05:12:21.361Z,81.30
2023-03-16T05:14:53.307Z,81.20
2023-03-16T05:17:31.138Z,81.20
2023-03-16T05:19:58.491Z,81.10
2023-03-16T05:22:26.105Z,81.20
2023-03-16T05:25:16.051Z,81.20
2023-03-16T05:27:49.802Z,81.20
2023-03-16T05:30:24.544Z,81.20
2023-03-16T05:32:55.119Z,81.10
2023-03-16T05:35:28.242Z,81.10
2023-03-16T05:38:00.208Z,81.10
2023-03-16T05:40:29.711Z,81.10
2023-03-16T05:48:40.474Z,81.10
2023-03-16T05:51:12.022Z,81.10
2023-03-16T05:53:42.437Z,81.10
2023-03-16T06:09:06.341Z,81.00
2023-03-16T06:11:49.270Z,81.00
2023-03-16T06:15:38.292Z,81.00
2023-03-16T06:18:24.086Z,81.00
2023-03-16T06:20:57.296Z,81.00
2023-03-16T06:28:19.096Z,81.10
2023-03-16T06:31:15.685Z,81.20
2023-03-16T06:34:14.223Z,81.10
2023-03-16T06:42:27.561Z,81.20
2023-03-16T08:05:02.232Z,81.10
2023-03-16T12:08:20.908Z,75.90
2023-03-16T12:12:29.898Z,75.70
2023-03-16T12:31:04.298Z,77.50
2023-03-16T12:51:00.077Z,77.20
2023-03-16T12:52:25.498Z,76.90
2023-03-16T12:55:28.481Z,76.90
2023-03-16T12:58:52.184Z,76.60
2023-03-16T13:01:30.729Z,76.40
2023-03-16T13:04:32.682Z,76.40
2023-03-16T13:07:26.019Z,76.90
2023-03-16T13:10:37.310Z,77.20
2023-03-16T13:13:33.504Z,77.10
2023-03-16T13:16:51.892Z,76.70
2023-03-16T13:19:57.280Z,77.00
2023-03-16T13:33:19.009Z,76.20
2023-03-16T14:08:46.753Z,76.80
2023-03-16T14:26:03.348Z,77.00
2023-03-16T14:42:56.118Z,77.50
2023-03-16T15:21:23.812Z,77.20
2023-03-16T15:41:24.862Z,77.30
2023-03-16T16:02:45.146Z,76.90
2023-03-16T16:41:15.960Z,77.10
2023-03-16T16:52:36.944Z,77.10
2023-03-16T17:45:51.825Z,77.20
2023-03-16T17:48:46.088Z,77.30
2023-03-16T17:51:44.887Z,77.20
2023-03-16T18:13:49.822Z,77.40
2023-03-16T18:25:59.700Z,77.70
2023-03-16T19:28:37.451Z,78.20
2023-03-16T19:34:37.084Z,78.30
2023-03-16T19:37:30.338Z,78.90
2023-03-16T19:41:00.970Z,78.10
2023-03-16T19:51:35.868Z,78.10
2023-03-16T19:55:38.901Z,78.30
2023-03-16T20:17:19.306Z,78.20
2023-03-16T20:24:40.269Z,78.20
2023-03-16T20:28:48.606Z,78.20
2023-03-16T21:18:08.037Z,78.00
2023-03-16T21:27:33.331Z,77.90
2023-03-16T21:31:00.224Z,77.90
2023-03-16T21:34:25.353Z,78.00
2023-03-16T21:37:47.681Z,77.80
2023-03-16T21:50:18.487Z,77.60
2023-03-16T21:53:18.173Z,77.60
2023-03-16T21:55:46.120Z,77.60
2023-03-16T21:58:16.411Z,77.50
2023-03-16T22:01:23.409Z,77.50
2023-03-16T22:04:06.251Z,77.60
2023-03-16T22:06:37.020Z,77.50
2023-03-16T22:09:04.826Z,77.40
2023-03-16T22:11:47.697Z,77.40
2023-03-16T22:14:17.969Z,77.50
2023-03-16T22:20:00.375Z,77.40
2023-03-16T22:25:31.452Z,77.40
2023-03-16T22:28:04.235Z,77.50
2023-03-16T22:30:37.886Z,77.50
2023-03-16T22:33:18.447Z,77.50
2023-03-16T22:36:15.026Z,77.30
2023-03-16T22:38:43.104Z,77.30
2023-03-16T22:41:14.578Z,77.30
2023-03-16T22:43:44.700Z,77.30
2023-03-16T22:46:24.160Z,77.30
2023-03-16T22:48:55.080Z,77.30
2023-03-16T22:51:37.344Z,77.30
2023-03-16T22:54:09.367Z,77.30
2023-03-16T22:56:37.634Z,77.20
2023-03-16T22:59:09.256Z,77.20
2023-03-16T23:01:48.210Z,77.30
2023-03-16T23:04:19.377Z,77.20
2023-03-16T23:06:56.649Z,77.10
2023-03-16T23:09:27.353Z,77.20
2023-03-16T23:11:56.597Z,77.10
2023-03-16T23:14:36.690Z,77.10
2023-03-16T23:17:03.974Z,77.10
2023-03-16T23:19:34.382Z,77.00
2023-03-16T23:22:06.966Z,77.20
2023-03-16T23:24:35.478Z,77.10
2023-03-16T23:27:03.733Z,77.10
2023-03-16T23:29:32.416Z,77.10
2023-03-16T23:31:59.683Z,77.00
2023-03-16T23:34:27.078Z,77.00
2023-03-16T23:36:57.485Z,77.00
2023-03-16T23:39:29.227Z,77.00
2023-03-16T23:41:56.499Z,76.90
2023-03-16T23:44:42.176Z,76.90
2023-03-16T23:47:14.088Z,77.00
2023-03-16T23:49:45.256Z,76.90
2023-03-16T23:52:13.882Z,76.90
2023-03-16T23:54:42.223Z,76.90
2023-03-16T23:57:10.106Z,76.90
2023-03-16T23:59:40.900Z,76.80
